sensor_id;sensor_type;location;lat;lon;timestamp;temperature;humidity
19580;DHT22;9936;51.040;13.918;2023-01-31T00:03:25;2.50;99.90
19580;DHT22;9936;51.040;13.918;2023-01-31T00:07:11;2.40;99.90
19580;DHT22;9936;51.040;13.918;2023-01-31T00:10:58;2.40;99.90
19580;DHT22;9936;51.040;13.918;2023-01-31T00:14:44;2.40;99.90
19580;DHT22;9936;51.040;13.918;2023-01-31T00:18:30;2.30;99.90
19580;DHT22;9936;51.040;13.918;2023-01-31T00:22:15;2.30;99.90
19580;DHT22;9936;51.040;13.918;2023-01-31T00:29:58;2.30;99.90
19580;DHT22;9936;51.040;13.918;2023-01-31T00:33:47;2.30;99.90
19580;DHT22;9936;51.040;13.918;2023-01-31T00:37:33;2.30;99.90
19580;DHT22;9936;51.040;13.918;2023-01-31T00:41:19;2.30;99.90
19580;DHT22;9936;51.040;13.918;2023-01-31T00:45:06;2.30;99.90
19580;DHT22;9936;51.040;13.918;2023-01-31T00:48:52;2.30;99.90
19580;DHT22;9936;51.040;13.918;2023-01-31T00:52:38;2.50;99.90
19580;DHT22;9936;51.040;13.918;2023-01-31T00:56:23;2.40;99.90
19580;DHT22;9936;51.040;13.918;2023-01-31T01:00:10;2.40;99.90
19580;DHT22;9936;51.040;13.918;2023-01-31T01:03:56;2.40;99.90
19580;DHT22;9936;51.040;13.918;2023-01-31T01:07:42;2.50;99.90
19580;DHT22;9936;51.040;13.918;2023-01-31T01:11:30;2.50;99.90
19580;DHT22;9936;51.040;13.918;2023-01-31T05:06:39;1.70;99.90
19580;DHT22;9936;51.040;13.918;2023-01-31T05:10:25;1.80;99.90
19580;DHT22;9936;51.040;13.918;2023-01-31T05:14:10;1.80;99.90
19580;DHT22;9936;51.040;13.918;2023-01-31T05:17:58;1.80;99.90
19580;DHT22;9936;51.040;13.918;2023-01-31T05:21:47;1.80;99.90
19580;DHT22;9936;51.040;13.918;2023-01-31T05:25:39;1.90;99.90
19580;DHT22;9936;51.040;13.918;2023-01-31T05:29:26;1.90;99.90
19580;DHT22;9936;51.040;13.918;2023-01-31T05:33:12;2.00;99.90
19580;DHT22;9936;51.040;13.918;2023-01-31T05:36:59;1.90;99.90
19580;DHT22;9936;51.040;13.918;2023-01-31T05:40:45;2.00;99.90
19580;DHT22;9936;51.040;13.918;2023-01-31T05:44:30;2.10;99.90
19580;DHT22;9936;51.040;13.918;2023-01-31T05:48:19;2.00;99.90
19580;DHT22;9936;51.040;13.918;2023-01-31T05:52:05;1.90;99.90
19580;DHT22;9936;51.040;13.918;2023-01-31T05:55:52;2.00;99.90
19580;DHT22;9936;51.040;13.918;2023-01-31T05:59:38;1.90;99.90
19580;DHT22;9936;51.040;13.918;2023-01-31T06:03:25;2.00;99.90
19580;DHT22;9936;51.040;13.918;2023-01-31T06:07:10;1.90;99.90
19580;DHT22;9936;51.040;13.918;2023-01-31T06:11:00;2.00;99.90
19580;DHT22;9936;51.040;13.918;2023-01-31T06:19:29;1.90;99.90
19580;DHT22;9936;51.040;13.918;2023-01-31T06:23:15;1.90;99.90
19580;DHT22;9936;51.040;13.918;2023-01-31T06:27:00;1.90;99.90
19580;DHT22;9936;51.040;13.918;2023-01-31T06:30:47;1.90;99.90
19580;DHT22;9936;51.040;13.918;2023-01-31T06:34:33;1.90;99.90
19580;DHT22;9936;51.040;13.918;2023-01-31T06:38:18;1.90;99.90
19580;DHT22;9936;51.040;13.918;2023-01-31T06:42:04;2.00;99.90
19580;DHT22;9936;51.040;13.918;2023-01-31T06:45:50;2.00;99.90
19580;DHT22;9936;51.040;13.918;2023-01-31T06:49:36;2.10;99.90
19580;DHT22;9936;51.040;13.918;2023-01-31T06:53:21;2.00;99.90
19580;DHT22;9936;51.040;13.918;2023-01-31T06:57:07;1.90;99.90
19580;DHT22;9936;51.040;13.918;2023-01-31T07:00:53;1.90;99.90
19580;DHT22;9936;51.040;13.918;2023-01-31T07:04:38;1.90;99.90
19580;DHT22;9936;51.040;13.918;2023-01-31T07:08:24;1.90;99.90
19580;DHT22;9936;51.040;13.918;2023-01-31T07:12:10;1.90;99.90
19580;DHT22;9936;51.040;13.918;2023-01-31T07:15:56;1.90;99.90
19580;DHT22;9936;51.040;13.918;2023-01-31T07:19:42;1.90;99.90
19580;DHT22;9936;51.040;13.918;2023-01-31T07:23:27;1.90;99.90
19580;DHT22;9936;51.040;13.918;2023-01-31T07:27:13;1.90;99.90
19580;DHT22;9936;51.040;13.918;2023-01-31T07:31:11;2.00;99.90
19580;DHT22;9936;51.040;13.918;2023-01-31T07:34:57;2.00;99.90
19580;DHT22;9936;51.040;13.918;2023-01-31T07:38:42;1.90;99.90
19580;DHT22;9936;51.040;13.918;2023-01-31T07:42:28;2.00;99.90
19580;DHT22;9936;51.040;13.918;2023-01-31T07:46:14;2.10;99.90
19580;DHT22;9936;51.040;13.918;2023-01-31T07:50:00;2.00;99.90
19580;DHT22;9936;51.040;13.918;2023-01-31T07:53:47;2.10;99.90
19580;DHT22;9936;51.040;13.918;2023-01-31T07:57:33;2.00;99.90
19580;DHT22;9936;51.040;13.918;2023-01-31T08:01:22;2.00;99.90
19580;DHT22;9936;51.040;13.918;2023-01-31T08:05:26;2.00;99.90
19580;DHT22;9936;51.040;13.918;2023-01-31T08:09:11;2.00;99.90
19580;DHT22;9936;51.040;13.918;2023-01-31T08:12:57;2.00;99.90
19580;DHT22;9936;51.040;13.918;2023-01-31T08:16:42;2.10;99.90
19580;DHT22;9936;51.040;13.918;2023-01-31T08:20:28;2.10;99.90
19580;DHT22;9936;51.040;13.918;2023-01-31T08:24:14;2.10;99.90
19580;DHT22;9936;51.040;13.918;2023-01-31T08:28:00;2.10;99.90
19580;DHT22;9936;51.040;13.918;2023-01-31T08:31:46;2.20;99.90
19580;DHT22;9936;51.040;13.918;2023-01-31T08:35:31;2.20;99.90
19580;DHT22;9936;51.040;13.918;2023-01-31T08:39:17;2.30;99.90
19580;DHT22;9936;51.040;13.918;2023-01-31T08:43:03;2.30;99.90
19580;DHT22;9936;51.040;13.918;2023-01-31T08:46:48;2.40;99.90
19580;DHT22;9936;51.040;13.918;2023-01-31T08:50:34;2.40;99.90
19580;DHT22;9936;51.040;13.918;2023-01-31T08:54:19;2.40;99.90
19580;DHT22;9936;51.040;13.918;2023-01-31T08:58:05;2.40;99.90
19580;DHT22;9936;51.040;13.918;2023-01-31T09:01:51;2.50;99.90
19580;DHT22;9936;51.040;13.918;2023-01-31T09:05:36;2.50;99.90
19580;DHT22;9936;51.040;13.918;2023-01-31T09:09:24;2.60;99.90
19580;DHT22;9936;51.040;13.918;2023-01-31T09:13:10;2.60;99.90
19580;DHT22;9936;51.040;13.918;2023-01-31T09:16:56;2.70;99.90
19580;DHT22;9936;51.040;13.918;2023-01-31T09:20:41;2.70;99.90
19580;DHT22;9936;51.040;13.918;2023-01-31T09:24:27;2.60;99.90
19580;DHT22;9936;51.040;13.918;2023-01-31T09:28:13;2.80;99.90
19580;DHT22;9936;51.040;13.918;2023-01-31T09:31:58;2.70;99.90
19580;DHT22;9936;51.040;13.918;2023-01-31T09:35:55;2.80;99.90
19580;DHT22;9936;51.040;13.918;2023-01-31T09:39:41;2.70;99.90
19580;DHT22;9936;51.040;13.918;2023-01-31T09:43:31;2.80;99.90
19580;DHT22;9936;51.040;13.918;2023-01-31T09:47:28;2.90;99.90
19580;DHT22;9936;51.040;13.918;2023-01-31T09:51:15;3.00;99.90
19580;DHT22;9936;51.040;13.918;2023-01-31T09:55:01;3.00;99.90
19580;DHT22;9936;51.040;13.918;2023-01-31T10:03:13;3.00;99.90
19580;DHT22;9936;51.040;13.918;2023-01-31T10:07:06;3.10;99.90
19580;DHT22;9936;51.040;13.918;2023-01-31T10:10:59;3.10;99.90
19580;DHT22;9936;51.040;13.918;2023-01-31T10:14:52;3.10;99.90
19580;DHT22;9936;51.040;13.918;2023-01-31T10:18:50;3.10;99.90
19580;DHT22;9936;51.040;13.918;2023-01-31T10:22:54;3.20;99.90
19580;DHT22;9936;51.040;13.918;2023-01-31T10:26:43;3.20;99.90
19580;DHT22;9936;51.040;13.918;2023-01-31T10:30:41;3.30;99.90
19580;DHT22;9936;51.040;13.918;2023-01-31T10:34:37;3.30;99.90
19580;DHT22;9936;51.040;13.918;2023-01-31T10:38:59;3.30;99.90
19580;DHT22;9936;51.040;13.918;2023-01-31T10:42:52;3.40;99.90
19580;DHT22;9936;51.040;13.918;2023-01-31T10:46:39;3.40;99.90
19580;DHT22;9936;51.040;13.918;2023-01-31T10:58:42;3.40;99.90
19580;DHT22;9936;51.040;13.918;2023-01-31T11:02:29;3.40;99.90
19580;DHT22;9936;51.040;13.918;2023-01-31T11:06:15;3.30;99.90
19580;DHT22;9936;51.040;13.918;2023-01-31T11:10:23;3.40;99.90
19580;DHT22;9936;51.040;13.918;2023-01-31T11:14:17;3.30;99.90
19580;DHT22;9936;51.040;13.918;2023-01-31T11:18:03;3.30;99.90
19580;DHT22;9936;51.040;13.918;2023-01-31T11:21:52;3.50;99.90
19580;DHT22;9936;51.040;13.918;2023-01-31T11:25:38;3.40;99.90
19580;DHT22;9936;51.040;13.918;2023-01-31T11:29:46;3.40;99.90
19580;DHT22;9936;51.040;13.918;2023-01-31T11:33:41;3.40;99.90
19580;DHT22;9936;51.040;13.918;2023-01-31T12:04:49;3.60;99.90
19580;DHT22;9936;51.040;13.918;2023-01-31T12:08:45;3.70;99.90
19580;DHT22;9936;51.040;13.918;2023-01-31T12:12:42;3.60;99.90
19580;DHT22;9936;51.040;13.918;2023-01-31T12:16:29;3.80;99.90
19580;DHT22;9936;51.040;13.918;2023-01-31T12:20:23;3.90;99.90
19580;DHT22;9936;51.040;13.918;2023-01-31T12:40:35;3.90;99.90
19580;DHT22;9936;51.040;13.918;2023-01-31T12:44:42;4.00;99.90
19580;DHT22;9936;51.040;13.918;2023-01-31T13:01:12;4.00;99.90
19580;DHT22;9936;51.040;13.918;2023-01-31T13:05:24;4.00;99.90
19580;DHT22;9936;51.040;13.918;2023-01-31T13:09:19;3.90;99.90
19580;DHT22;9936;51.040;13.918;2023-01-31T13:13:13;3.80;99.90
19580;DHT22;9936;51.040;13.918;2023-01-31T13:17:03;3.80;99.90
19580;DHT22;9936;51.040;13.918;2023-01-31T13:21:11;3.80;99.90
19580;DHT22;9936;51.040;13.918;2023-01-31T13:32:50;3.80;99.90
19580;DHT22;9936;51.040;13.918;2023-01-31T13:40:31;3.70;99.90
19580;DHT22;9936;51.040;13.918;2023-01-31T13:44:20;3.60;99.90
19580;DHT22;9936;51.040;13.918;2023-01-31T13:48:09;3.50;99.90
19580;DHT22;9936;51.040;13.918;2023-01-31T13:52:08;3.40;99.90
19580;DHT22;9936;51.040;13.918;2023-01-31T13:55:56;3.30;99.90
19580;DHT22;9936;51.040;13.918;2023-01-31T13:59:54;3.30;99.90
19580;DHT22;9936;51.040;13.918;2023-01-31T14:20:29;3.20;99.90
19580;DHT22;9936;51.040;13.918;2023-01-31T14:28:26;3.20;99.90
19580;DHT22;9936;51.040;13.918;2023-01-31T14:32:23;3.20;99.90
19580;DHT22;9936;51.040;13.918;2023-01-31T14:36:32;3.10;99.90
19580;DHT22;9936;51.040;13.918;2023-01-31T14:53:13;3.40;99.90
19580;DHT22;9936;51.040;13.918;2023-01-31T14:57:29;3.50;99.90
19580;DHT22;9936;51.040;13.918;2023-01-31T15:01:19;3.50;99.90
19580;DHT22;9936;51.040;13.918;2023-01-31T15:05:10;3.60;99.90
19580;DHT22;9936;51.040;13.918;2023-01-31T15:17:50;3.60;99.90
19580;DHT22;9936;51.040;13.918;2023-01-31T15:21:59;3.60;99.90
19580;DHT22;9936;51.040;13.918;2023-01-31T15:25:58;3.50;99.90
19580;DHT22;9936;51.040;13.918;2023-01-31T15:30:02;3.50;99.90
19580;DHT22;9936;51.040;13.918;2023-01-31T15:34:18;3.40;99.90
19580;DHT22;9936;51.040;13.918;2023-01-31T15:38:21;3.40;99.90
19580;DHT22;9936;51.040;13.918;2023-01-31T15:42:29;3.40;99.90
19580;DHT22;9936;51.040;13.918;2023-01-31T15:46:29;3.40;99.90
19580;DHT22;9936;51.040;13.918;2023-01-31T15:50:50;3.30;99.90
19580;DHT22;9936;51.040;13.918;2023-01-31T15:59:13;3.30;99.90
19580;DHT22;9936;51.040;13.918;2023-01-31T16:03:00;3.30;99.90
19580;DHT22;9936;51.040;13.918;2023-01-31T16:06:47;3.30;99.90
19580;DHT22;9936;51.040;13.918;2023-01-31T16:11:08;3.30;99.90
19580;DHT22;9936;51.040;13.918;2023-01-31T16:16:04;3.30;99.90
19580;DHT22;9936;51.040;13.918;2023-01-31T16:19:51;3.30;99.90
19580;DHT22;9936;51.040;13.918;2023-01-31T16:23:37;3.30;99.90
19580;DHT22;9936;51.040;13.918;2023-01-31T16:27:23;3.30;99.90
19580;DHT22;9936;51.040;13.918;2023-01-31T16:31:12;3.20;99.90
19580;DHT22;9936;51.040;13.918;2023-01-31T16:39:04;3.20;99.90
19580;DHT22;9936;51.040;13.918;2023-01-31T16:43:12;3.20;99.90
19580;DHT22;9936;51.040;13.918;2023-01-31T16:47:03;3.20;99.90
19580;DHT22;9936;51.040;13.918;2023-01-31T16:50:50;3.20;99.90
19580;DHT22;9936;51.040;13.918;2023-01-31T16:54:54;3.20;99.90
19580;DHT22;9936;51.040;13.918;2023-01-31T16:59:02;3.30;99.90
19580;DHT22;9936;51.040;13.918;2023-01-31T17:02:48;3.20;99.90
19580;DHT22;9936;51.040;13.918;2023-01-31T17:06:34;3.30;99.90
19580;DHT22;9936;51.040;13.918;2023-01-31T17:10:23;3.20;99.90
19580;DHT22;9936;51.040;13.918;2023-01-31T17:14:11;3.20;99.90
19580;DHT22;9936;51.040;13.918;2023-01-31T17:17:57;3.20;99.90
19580;DHT22;9936;51.040;13.918;2023-01-31T17:21:43;3.30;99.90
19580;DHT22;9936;51.040;13.918;2023-01-31T17:25:33;3.30;99.90
19580;DHT22;9936;51.040;13.918;2023-01-31T17:29:21;3.40;99.90
19580;DHT22;9936;51.040;13.918;2023-01-31T17:33:16;3.20;99.90
19580;DHT22;9936;51.040;13.918;2023-01-31T18:00:27;3.30;99.90
19580;DHT22;9936;51.040;13.918;2023-01-31T18:04:20;3.40;99.90
19580;DHT22;9936;51.040;13.918;2023-01-31T18:08:07;3.40;99.90
19580;DHT22;9936;51.040;13.918;2023-01-31T18:12:05;3.40;99.90
19580;DHT22;9936;51.040;13.918;2023-01-31T18:16:03;3.40;99.90
19580;DHT22;9936;51.040;13.918;2023-01-31T18:19:49;3.40;99.90
19580;DHT22;9936;51.040;13.918;2023-01-31T18:23:57;3.40;99.90
19580;DHT22;9936;51.040;13.918;2023-01-31T18:27:44;3.50;99.90
19580;DHT22;9936;51.040;13.918;2023-01-31T18:31:30;3.50;99.90
19580;DHT22;9936;51.040;13.918;2023-01-31T18:35:15;3.50;99.90
19580;DHT22;9936;51.040;13.918;2023-01-31T18:39:03;3.60;99.90
19580;DHT22;9936;51.040;13.918;2023-01-31T18:42:48;3.60;99.90
19580;DHT22;9936;51.040;13.918;2023-01-31T18:46:39;3.70;99.90
19580;DHT22;9936;51.040;13.918;2023-01-31T18:50:25;3.70;99.90
19580;DHT22;9936;51.040;13.918;2023-01-31T18:54:10;3.70;99.90
19580;DHT22;9936;51.040;13.918;2023-01-31T18:57:56;3.80;99.90
19580;DHT22;9936;51.040;13.918;2023-01-31T19:01:42;3.80;99.90
19580;DHT22;9936;51.040;13.918;2023-01-31T19:05:27;3.80;99.90
19580;DHT22;9936;51.040;13.918;2023-01-31T19:09:13;3.90;99.90
19580;DHT22;9936;51.040;13.918;2023-01-31T19:12:59;3.80;99.90
19580;DHT22;9936;51.040;13.918;2023-01-31T19:16:45;3.80;99.90
19580;DHT22;9936;51.040;13.918;2023-01-31T19:20:30;3.90;99.90
19580;DHT22;9936;51.040;13.918;2023-01-31T19:24:16;3.90;99.90
19580;DHT22;9936;51.040;13.918;2023-01-31T19:28:02;3.90;99.90
19580;DHT22;9936;51.040;13.918;2023-01-31T19:31:47;3.90;99.90
19580;DHT22;9936;51.040;13.918;2023-01-31T19:35:48;3.90;99.90
19580;DHT22;9936;51.040;13.918;2023-01-31T19:39:35;3.90;99.90
19580;DHT22;9936;51.040;13.918;2023-01-31T19:43:21;3.90;99.90
19580;DHT22;9936;51.040;13.918;2023-01-31T19:47:06;3.90;99.90
19580;DHT22;9936;51.040;13.918;2023-01-31T19:50:52;3.90;99.90
19580;DHT22;9936;51.040;13.918;2023-01-31T19:54:38;3.80;99.90
19580;DHT22;9936;51.040;13.918;2023-01-31T19:58:25;3.90;99.90
19580;DHT22;9936;51.040;13.918;2023-01-31T20:02:15;3.90;99.90
19580;DHT22;9936;51.040;13.918;2023-01-31T20:06:19;4.00;99.90
19580;DHT22;9936;51.040;13.918;2023-01-31T20:10:27;4.00;99.90
19580;DHT22;9936;51.040;13.918;2023-01-31T20:14:13;4.00;99.90
19580;DHT22;9936;51.040;13.918;2023-01-31T20:18:14;4.00;99.90
19580;DHT22;9936;51.040;13.918;2023-01-31T20:22:00;4.00;99.90
19580;DHT22;9936;51.040;13.918;2023-01-31T20:25:51;3.90;99.90
19580;DHT22;9936;51.040;13.918;2023-01-31T20:29:36;4.00;99.90
19580;DHT22;9936;51.040;13.918;2023-01-31T20:33:22;4.00;99.90
19580;DHT22;9936;51.040;13.918;2023-01-31T20:37:08;4.00;99.90
19580;DHT22;9936;51.040;13.918;2023-01-31T20:40:54;4.00;99.90
19580;DHT22;9936;51.040;13.918;2023-01-31T20:44:40;3.90;99.90
19580;DHT22;9936;51.040;13.918;2023-01-31T20:48:25;3.80;99.90
19580;DHT22;9936;51.040;13.918;2023-01-31T20:52:11;3.80;99.90
19580;DHT22;9936;51.040;13.918;2023-01-31T20:56:02;3.70;99.90
19580;DHT22;9936;51.040;13.918;2023-01-31T20:59:48;3.70;99.90
19580;DHT22;9936;51.040;13.918;2023-01-31T21:03:37;3.70;99.90
19580;DHT22;9936;51.040;13.918;2023-01-31T21:07:24;3.80;99.90
19580;DHT22;9936;51.040;13.918;2023-01-31T21:11:13;3.70;99.90
19580;DHT22;9936;51.040;13.918;2023-01-31T21:14:59;3.80;99.90
19580;DHT22;9936;51.040;13.918;2023-01-31T21:18:45;3.70;99.90
19580;DHT22;9936;51.040;13.918;2023-01-31T21:22:30;3.90;99.90
19580;DHT22;9936;51.040;13.918;2023-01-31T21:26:19;3.90;99.90
19580;DHT22;9936;51.040;13.918;2023-01-31T21:30:05;4.00;99.90
19580;DHT22;9936;51.040;13.918;2023-01-31T21:33:51;3.80;99.90
19580;DHT22;9936;51.040;13.918;2023-01-31T21:37:37;3.80;99.90
19580;DHT22;9936;51.040;13.918;2023-01-31T21:41:22;3.70;99.90
19580;DHT22;9936;51.040;13.918;2023-01-31T21:45:26;3.60;99.90
19580;DHT22;9936;51.040;13.918;2023-01-31T21:49:32;3.60;99.90
19580;DHT22;9936;51.040;13.918;2023-01-31T21:53:18;3.50;99.90
19580;DHT22;9936;51.040;13.918;2023-01-31T22:01:28;3.50;99.90
19580;DHT22;9936;51.040;13.918;2023-01-31T22:05:14;3.50;99.90
19580;DHT22;9936;51.040;13.918;2023-01-31T22:09:00;3.50;99.90
19580;DHT22;9936;51.040;13.918;2023-01-31T22:12:46;3.60;99.90
19580;DHT22;9936;51.040;13.918;2023-01-31T22:16:32;3.50;99.90
19580;DHT22;9936;51.040;13.918;2023-01-31T22:20:17;3.60;99.90
19580;DHT22;9936;51.040;13.918;2023-01-31T22:24:05;3.60;99.90
19580;DHT22;9936;51.040;13.918;2023-01-31T22:27:51;3.70;99.90
19580;DHT22;9936;51.040;13.918;2023-01-31T22:31:37;3.70;99.90
19580;DHT22;9936;51.040;13.918;2023-01-31T22:35:22;3.80;99.90
19580;DHT22;9936;51.040;13.918;2023-01-31T22:39:11;3.80;99.90
19580;DHT22;9936;51.040;13.918;2023-01-31T22:42:58;3.90;99.90
19580;DHT22;9936;51.040;13.918;2023-01-31T22:46:44;3.80;99.90
19580;DHT22;9936;51.040;13.918;2023-01-31T22:50:29;3.90;99.90
19580;DHT22;9936;51.040;13.918;2023-01-31T22:54:15;3.90;99.90
19580;DHT22;9936;51.040;13.918;2023-01-31T22:58:02;4.00;99.90
19580;DHT22;9936;51.040;13.918;2023-01-31T23:01:48;4.00;99.90
19580;DHT22;9936;51.040;13.918;2023-01-31T23:05:38;4.00;99.90
19580;DHT22;9936;51.040;13.918;2023-01-31T23:09:24;4.00;99.90
19580;DHT22;9936;51.040;13.918;2023-01-31T23:13:10;4.00;99.90
19580;DHT22;9936;51.040;13.918;2023-01-31T23:40:28;4.00;99.90
19580;DHT22;9936;51.040;13.918;2023-01-31T23:44:14;4.00;99.90
19580;DHT22;9936;51.040;13.918;2023-01-31T23:47:59;4.00;99.90
19580;DHT22;9936;51.040;13.918;2023-01-31T23:51:45;4.00;99.90
19580;DHT22;9936;51.040;13.918;2023-01-31T23:55:31;4.00;99.90
19580;DHT22;9936;51.040;13.918;2023-01-31T23:59:16;3.90;99.90
